sensor_id;sensor_type;location;lat;lon;timestamp;pressure;altitude;pressure_sealevel;temperature;humidity
39243;BME280;29823;47.404;8.566;2022-10-03T00:00:11;97214.94;;;13.93;100.00
39243;BME280;29823;47.404;8.566;2022-10-03T00:03:21;97208.97;;;13.91;100.00
39243;BME280;29823;47.404;8.566;2022-10-03T00:06:04;97208.75;;;13.93;100.00
39243;BME280;29823;47.404;8.566;2022-10-03T00:11:48;97210.75;;;13.86;100.00
39243;BME280;29823;47.404;8.566;2022-10-03T00:14:30;97212.16;;;13.88;100.00
39243;BME280;29823;47.404;8.566;2022-10-03T00:17:05;97212.50;;;13.92;100.00
39243;BME280;29823;47.404;8.566;2022-10-03T00:19:43;97209.91;;;13.74;100.00
39243;BME280;29823;47.404;8.566;2022-10-03T00:22:23;97212.84;;;13.72;100.00
39243;BME280;29823;47.404;8.566;2022-10-03T00:25:03;97212.38;;;13.75;100.00
39243;BME280;29823;47.404;8.566;2022-10-03T00:27:37;97211.19;;;13.71;100.00
39243;BME280;29823;47.404;8.566;2022-10-03T00:30:19;97202.81;;;13.56;100.00
39243;BME280;29823;47.404;8.566;2022-10-03T00:33:06;97210.25;;;13.54;100.00
39243;BME280;29823;47.404;8.566;2022-10-03T00:35:48;97221.13;;;13.59;100.00
39243;BME280;29823;47.404;8.566;2022-10-03T00:42:06;97228.84;;;13.56;100.00
39243;BME280;29823;47.404;8.566;2022-10-03T00:44:57;97227.53;;;13.35;100.00
39243;BME280;29823;47.404;8.566;2022-10-03T00:47:49;97231.97;;;13.41;100.00
39243;BME280;29823;47.404;8.566;2022-10-03T00:50:46;97235.13;;;13.38;100.00
39243;BME280;29823;47.404;8.566;2022-10-03T00:53:28;97245.53;;;13.46;100.00
39243;BME280;29823;47.404;8.566;2022-10-03T00:56:17;97242.25;;;13.44;100.00
39243;BME280;29823;47.404;8.566;2022-10-03T00:59:03;97241.22;;;13.45;100.00
39243;BME280;29823;47.404;8.566;2022-10-03T01:01:41;97246.81;;;13.44;100.00
39243;BME280;29823;47.404;8.566;2022-10-03T01:04:26;97238.63;;;13.39;100.00
39243;BME280;29823;47.404;8.566;2022-10-03T01:07:04;97246.72;;;13.50;100.00
39243;BME280;29823;47.404;8.566;2022-10-03T01:09:47;97235.03;;;13.56;100.00
39243;BME280;29823;47.404;8.566;2022-10-03T01:15:31;97244.50;;;13.59;100.00
39243;BME280;29823;47.404;8.566;2022-10-03T01:18:15;97239.72;;;13.61;100.00
39243;BME280;29823;47.404;8.566;2022-10-03T01:20:53;97240.88;;;13.53;100.00
39243;BME280;29823;47.404;8.566;2022-10-03T01:24:01;97245.78;;;13.56;100.00
39243;BME280;29823;47.404;8.566;2022-10-03T01:26:52;97237.00;;;13.49;100.00
39243;BME280;29823;47.404;8.566;2022-10-03T01:29:27;97244.25;;;13.49;100.00
39243;BME280;29823;47.404;8.566;2022-10-03T01:32:20;97245.31;;;13.59;100.00
39243;BME280;29823;47.404;8.566;2022-10-03T01:34:53;97249.06;;;13.58;100.00
39243;BME280;29823;47.404;8.566;2022-10-03T01:37:32;97244.97;;;13.56;100.00
39243;BME280;29823;47.404;8.566;2022-10-03T01:40:15;97252.09;;;13.50;100.00
39243;BME280;29823;47.404;8.566;2022-10-03T01:42:56;97251.63;;;13.53;100.00
39243;BME280;29823;47.404;8.566;2022-10-03T01:45:36;97247.63;;;13.44;100.00
39243;BME280;29823;47.404;8.566;2022-10-03T01:48:11;97260.16;;;13.50;100.00
39243;BME280;29823;47.404;8.566;2022-10-03T01:50:48;97257.09;;;13.35;100.00
39243;BME280;29823;47.404;8.566;2022-10-03T01:53:25;97262.81;;;13.39;100.00
39243;BME280;29823;47.404;8.566;2022-10-03T01:56:00;97269.59;;;13.41;100.00
39243;BME280;29823;47.404;8.566;2022-10-03T01:58:38;97270.28;;;13.37;100.00
39243;BME280;29823;47.404;8.566;2022-10-03T02:01:12;97275.88;;;13.35;100.00
39243;BME280;29823;47.404;8.566;2022-10-03T02:03:45;97280.19;;;13.36;100.00
39243;BME280;29823;47.404;8.566;2022-10-03T02:06:21;97282.06;;;13.36;100.00
39243;BME280;29823;47.404;8.566;2022-10-03T02:08:54;97276.47;;;13.37;100.00
39243;BME280;29823;47.404;8.566;2022-10-03T02:11:30;97275.66;;;13.48;100.00
39243;BME280;29823;47.404;8.566;2022-10-03T02:14:11;97276.16;;;13.57;100.00
39243;BME280;29823;47.404;8.566;2022-10-03T02:16:44;97277.91;;;13.63;100.00
39243;BME280;29823;47.404;8.566;2022-10-03T02:19:17;97276.63;;;13.65;100.00
39243;BME280;29823;47.404;8.566;2022-10-03T02:21:50;97278.16;;;13.73;100.00
39243;BME280;29823;47.404;8.566;2022-10-03T02:24:37;97278.38;;;13.71;100.00
39243;BME280;29823;47.404;8.566;2022-10-03T02:30:19;97296.97;;;13.61;100.00
39243;BME280;29823;47.404;8.566;2022-10-03T02:33:23;97293.47;;;13.61;100.00
39243;BME280;29823;47.404;8.566;2022-10-03T02:36:42;97303.06;;;13.68;100.00
39243;BME280;29823;47.404;8.566;2022-10-03T02:39:35;97292.44;;;13.73;100.00
39243;BME280;29823;47.404;8.566;2022-10-03T02:42:37;97289.75;;;13.73;100.00
39243;BME280;29823;47.404;8.566;2022-10-03T02:45:53;97282.00;;;13.65;100.00
39243;BME280;29823;47.404;8.566;2022-10-03T02:52:03;97291.34;;;13.51;100.00
39243;BME280;29823;47.404;8.566;2022-10-03T02:55:04;97279.84;;;13.44;100.00
39243;BME280;29823;47.404;8.566;2022-10-03T02:58:00;97277.97;;;13.33;100.00
39243;BME280;29823;47.404;8.566;2022-10-03T03:04:13;97286.16;;;13.38;100.00
39243;BME280;29823;47.404;8.566;2022-10-03T03:07:16;97298.44;;;13.46;100.00
39243;BME280;29823;47.404;8.566;2022-10-03T03:13:31;97291.69;;;13.55;100.00
39243;BME280;29823;47.404;8.566;2022-10-03T03:16:26;97295.66;;;13.52;100.00
39243;BME280;29823;47.404;8.566;2022-10-03T03:19:14;97299.72;;;13.43;100.00
39243;BME280;29823;47.404;8.566;2022-10-03T03:21:50;97288.84;;;13.38;100.00
39243;BME280;29823;47.404;8.566;2022-10-03T03:24:41;97299.50;;;13.45;100.00
39243;BME280;29823;47.404;8.566;2022-10-03T03:27:34;97294.91;;;13.34;100.00
39243;BME280;29823;47.404;8.566;2022-10-03T03:30:09;97292.44;;;13.32;100.00
39243;BME280;29823;47.404;8.566;2022-10-03T03:32:48;97286.97;;;13.39;100.00
39243;BME280;29823;47.404;8.566;2022-10-03T03:35:27;97288.47;;;13.23;100.00
39243;BME280;29823;47.404;8.566;2022-10-03T03:38:10;97300.94;;;13.18;100.00
39243;BME280;29823;47.404;8.566;2022-10-03T03:40:44;97301.16;;;13.16;100.00
39243;BME280;29823;47.404;8.566;2022-10-03T03:43:27;97300.84;;;13.24;100.00
39243;BME280;29823;47.404;8.566;2022-10-03T03:46:08;97296.84;;;13.15;100.00
39243;BME280;29823;47.404;8.566;2022-10-03T03:49:02;97300.72;;;13.19;100.00
39243;BME280;29823;47.404;8.566;2022-10-03T03:51:41;97303.13;;;13.09;100.00
39243;BME280;29823;47.404;8.566;2022-10-03T03:54:32;97301.28;;;13.21;100.00
39243;BME280;29823;47.404;8.566;2022-10-03T04:00:12;97297.25;;;13.30;100.00
39243;BME280;29823;47.404;8.566;2022-10-03T04:02:57;97290.72;;;13.38;100.00
39243;BME280;29823;47.404;8.566;2022-10-03T04:05:41;97293.63;;;13.36;100.00
39243;BME280;29823;47.404;8.566;2022-10-03T04:08:25;97290.38;;;13.34;100.00
39243;BME280;29823;47.404;8.566;2022-10-03T04:11:02;97295.13;;;13.32;100.00
39243;BME280;29823;47.404;8.566;2022-10-03T04:13:45;97294.59;;;13.42;100.00
39243;BME280;29823;47.404;8.566;2022-10-03T04:16:28;97292.59;;;13.37;100.00
39243;BME280;29823;47.404;8.566;2022-10-03T04:19:23;97282.44;;;13.39;100.00
39243;BME280;29823;47.404;8.566;2022-10-03T04:22:08;97285.13;;;13.51;100.00
39243;BME280;29823;47.404;8.566;2022-10-03T04:25:16;97284.34;;;13.50;100.00
39243;BME280;29823;47.404;8.566;2022-10-03T04:28:14;97270.16;;;13.43;100.00
39243;BME280;29823;47.404;8.566;2022-10-03T04:30:58;97270.66;;;13.52;100.00
39243;BME280;29823;47.404;8.566;2022-10-03T04:33:40;97262.38;;;13.53;100.00
39243;BME280;29823;47.404;8.566;2022-10-03T04:36:38;97266.56;;;13.49;100.00
39243;BME280;29823;47.404;8.566;2022-10-03T04:39:19;97268.09;;;13.57;100.00
39243;BME280;29823;47.404;8.566;2022-10-03T04:41:57;97266.56;;;13.49;100.00
39243;BME280;29823;47.404;8.566;2022-10-03T04:44:38;97262.94;;;13.44;100.00
39243;BME280;29823;47.404;8.566;2022-10-03T04:47:17;97270.03;;;13.38;100.00
39243;BME280;29823;47.404;8.566;2022-10-03T04:49:51;97275.06;;;13.35;100.00
39243;BME280;29823;47.404;8.566;2022-10-03T04:52:27;97269.78;;;13.28;100.00
39243;BME280;29823;47.404;8.566;2022-10-03T04:55:05;97265.59;;;13.32;100.00
39243;BME280;29823;47.404;8.566;2022-10-03T04:57:48;97265.47;;;13.27;100.00
39243;BME280;29823;47.404;8.566;2022-10-03T05:00:22;97270.38;;;13.30;100.00
39243;BME280;29823;47.404;8.566;2022-10-03T05:02:57;97274.84;;;13.36;100.00
39243;BME280;29823;47.404;8.566;2022-10-03T05:05:45;97272.59;;;13.33;100.00
39243;BME280;29823;47.404;8.566;2022-10-03T05:08:31;97277.97;;;13.33;100.00
39243;BME280;29823;47.404;8.566;2022-10-03T05:11:08;97265.94;;;13.36;100.00
39243;BME280;29823;47.404;8.566;2022-10-03T05:13:48;97259.72;;;13.12;100.00
39243;BME280;29823;47.404;8.566;2022-10-03T05:16:25;97281.22;;;13.24;100.00
39243;BME280;29823;47.404;8.566;2022-10-03T05:19:05;97290.38;;;13.34;100.00
39243;BME280;29823;47.404;8.566;2022-10-03T05:21:40;97283.34;;;13.33;100.00
39243;BME280;29823;47.404;8.566;2022-10-03T05:24:18;97292.25;;;13.45;100.00
39243;BME280;29823;47.404;8.566;2022-10-03T05:26:55;97291.16;;;13.35;100.00
39243;BME280;29823;47.404;8.566;2022-10-03T05:29:35;97286.19;;;13.50;100.00
39243;BME280;29823;47.404;8.566;2022-10-03T05:32:12;97284.50;;;13.26;100.00
39243;BME280;29823;47.404;8.566;2022-10-03T05:34:58;97291.81;;;13.19;100.00
39243;BME280;29823;47.404;8.566;2022-10-03T05:37:40;97305.22;;;13.07;100.00
39243;BME280;29823;47.404;8.566;2022-10-03T05:40:17;97306.84;;;13.08;100.00
39243;BME280;29823;47.404;8.566;2022-10-03T05:42:59;97301.94;;;13.05;100.00
39243;BME280;29823;47.404;8.566;2022-10-03T05:45:37;97310.72;;;13.12;100.00
39243;BME280;29823;47.404;8.566;2022-10-03T05:48:16;97308.56;;;13.03;100.00
39243;BME280;29823;47.404;8.566;2022-10-03T05:51:12;97316.09;;;13.12;100.00
39243;BME280;29823;47.404;8.566;2022-10-03T05:54:09;97324.03;;;13.19;100.00
39243;BME280;29823;47.404;8.566;2022-10-03T05:56:54;97316.69;;;13.14;100.00
39243;BME280;29823;47.404;8.566;2022-10-03T05:59:35;97322.06;;;13.14;100.00
39243;BME280;29823;47.404;8.566;2022-10-03T06:02:36;97321.78;;;13.04;100.00
39243;BME280;29823;47.404;8.566;2022-10-03T06:05:14;97326.41;;;12.97;100.00
39243;BME280;29823;47.404;8.566;2022-10-03T06:07:56;97325.19;;;13.11;100.00
39243;BME280;29823;47.404;8.566;2022-10-03T06:10:42;97331.81;;;12.91;100.00
39243;BME280;29823;47.404;8.566;2022-10-03T06:13:17;97328.13;;;13.10;100.00
39243;BME280;29823;47.404;8.566;2022-10-03T06:15:53;97323.88;;;13.02;100.00
39243;BME280;29823;47.404;8.566;2022-10-03T06:21:39;97321.13;;;13.20;100.00
39243;BME280;29823;47.404;8.566;2022-10-03T06:24:28;97332.59;;;13.27;100.00
39243;BME280;29823;47.404;8.566;2022-10-03T06:30:32;97334.56;;;13.20;100.00
39243;BME280;29823;47.404;8.566;2022-10-03T06:33:48;97340.22;;;13.30;100.00
39243;BME280;29823;47.404;8.566;2022-10-03T06:36:26;97346.66;;;13.41;100.00
39243;BME280;29823;47.404;8.566;2022-10-03T06:42:45;97361.63;;;13.48;100.00
39243;BME280;29823;47.404;8.566;2022-10-03T06:48:30;97367.94;;;13.42;100.00
39243;BME280;29823;47.404;8.566;2022-10-03T06:51:35;97369.25;;;13.51;100.00
39243;BME280;29823;47.404;8.566;2022-10-03T06:57:40;97368.47;;;13.62;100.00
39243;BME280;29823;47.404;8.566;2022-10-03T07:00:18;97373.53;;;13.41;100.00
39243;BME280;29823;47.404;8.566;2022-10-03T07:03:12;97366.09;;;13.54;100.00
39243;BME280;29823;47.404;8.566;2022-10-03T07:06:15;97383.06;;;13.55;100.00
39243;BME280;29823;47.404;8.566;2022-10-03T07:18:36;97380.63;;;13.65;100.00
39243;BME280;29823;47.404;8.566;2022-10-03T07:24:27;97382.41;;;13.71;100.00
39243;BME280;29823;47.404;8.566;2022-10-03T07:27:17;97381.56;;;13.29;100.00
39243;BME280;29823;47.404;8.566;2022-10-03T07:30:08;97389.69;;;13.52;100.00
39243;BME280;29823;47.404;8.566;2022-10-03T07:35:44;97377.50;;;13.79;100.00
39243;BME280;29823;47.404;8.566;2022-10-03T07:39:13;97392.06;;;14.01;100.00
39243;BME280;29823;47.404;8.566;2022-10-03T07:42:18;97392.19;;;14.06;100.00
39243;BME280;29823;47.404;8.566;2022-10-03T07:45:26;97392.38;;;14.23;100.00
39243;BME280;29823;47.404;8.566;2022-10-03T07:51:11;97401.81;;;14.25;100.00
39243;BME280;29823;47.404;8.566;2022-10-03T07:57:13;97403.88;;;14.00;100.00
39243;BME280;29823;47.404;8.566;2022-10-03T08:00:01;97407.19;;;14.25;100.00
39243;BME280;29823;47.404;8.566;2022-10-03T08:05:38;97407.59;;;14.63;100.00
39243;BME280;29823;47.404;8.566;2022-10-03T08:08:28;97415.50;;;14.70;100.00
39243;BME280;29823;47.404;8.566;2022-10-03T08:11:15;97412.38;;;14.73;100.00
39243;BME280;29823;47.404;8.566;2022-10-03T08:13:59;97420.19;;;14.97;100.00
39243;BME280;29823;47.404;8.566;2022-10-03T08:16:53;97415.97;;;15.01;100.00
39243;BME280;29823;47.404;8.566;2022-10-03T08:19:50;97420.53;;;14.89;100.00
39243;BME280;29823;47.404;8.566;2022-10-03T08:22:35;97413.53;;;14.77;100.00
39243;BME280;29823;47.404;8.566;2022-10-03T08:25:21;97414.00;;;14.74;100.00
39243;BME280;29823;47.404;8.566;2022-10-03T08:28:21;97417.25;;;14.87;100.00
39243;BME280;29823;47.404;8.566;2022-10-03T08:31:14;97420.44;;;14.61;100.00
39243;BME280;29823;47.404;8.566;2022-10-03T08:34:18;97414.00;;;14.62;100.00
39243;BME280;29823;47.404;8.566;2022-10-03T08:37:05;97420.81;;;14.53;100.00
39243;BME280;29823;47.404;8.566;2022-10-03T08:39:52;97418.44;;;14.45;100.00
39243;BME280;29823;47.404;8.566;2022-10-03T08:42:51;97423.09;;;14.84;100.00
39243;BME280;29823;47.404;8.566;2022-10-03T08:45:48;97427.91;;;14.94;100.00
39243;BME280;29823;47.404;8.566;2022-10-03T08:48:52;97424.31;;;15.28;100.00
39243;BME280;29823;47.404;8.566;2022-10-03T08:51:58;97420.19;;;14.97;100.00
39243;BME280;29823;47.404;8.566;2022-10-03T08:57:59;97428.66;;;15.40;100.00
39243;BME280;29823;47.404;8.566;2022-10-03T09:01:00;97417.91;;;15.57;100.00
39243;BME280;29823;47.404;8.566;2022-10-03T09:04:38;97417.44;;;15.60;100.00
39243;BME280;29823;47.404;8.566;2022-10-03T09:07:30;97406.91;;;15.58;100.00
39243;BME280;29823;47.404;8.566;2022-10-03T09:10:44;97404.88;;;15.65;100.00
39243;BME280;29823;47.404;8.566;2022-10-03T09:13:54;97412.13;;;15.76;100.00
39243;BME280;29823;47.404;8.566;2022-10-03T09:16:45;97399.59;;;16.48;100.00
39243;BME280;29823;47.404;8.566;2022-10-03T09:19:52;97398.13;;;16.57;100.00
39243;BME280;29823;47.404;8.566;2022-10-03T09:26:07;97380.09;;;17.38;100.00
39243;BME280;29823;47.404;8.566;2022-10-03T09:32:17;97381.03;;;17.32;100.00
39243;BME280;29823;47.404;8.566;2022-10-03T09:35:18;97383.94;;;17.47;100.00
39243;BME280;29823;47.404;8.566;2022-10-03T09:38:14;97373.69;;;16.85;100.00
39243;BME280;29823;47.404;8.566;2022-10-03T09:41:20;97373.78;;;17.54;100.00
39243;BME280;29823;47.404;8.566;2022-10-03T09:44:08;97366.03;;;18.26;100.00
39243;BME280;29823;47.404;8.566;2022-10-03T09:50:47;97368.03;;;17.29;100.00
39243;BME280;29823;47.404;8.566;2022-10-03T09:59:44;97364.72;;;16.13;100.00
39243;BME280;29823;47.404;8.566;2022-10-03T10:02:43;97357.53;;;16.35;100.00
39243;BME280;29823;47.404;8.566;2022-10-03T10:05:48;97355.91;;;16.01;100.00
39243;BME280;29823;47.404;8.566;2022-10-03T10:08:35;97357.44;;;15.97;100.00
39243;BME280;29823;47.404;8.566;2022-10-03T10:11:18;97351.97;;;16.09;100.00
39243;BME280;29823;47.404;8.566;2022-10-03T10:17:20;97349.09;;;16.32;100.00
39243;BME280;29823;47.404;8.566;2022-10-03T10:20:06;97354.69;;;16.09;100.00
39243;BME280;29823;47.404;8.566;2022-10-03T10:23:04;97347.75;;;16.67;100.00
39243;BME280;29823;47.404;8.566;2022-10-03T10:26:07;97348.03;;;16.87;100.00
39243;BME280;29823;47.404;8.566;2022-10-03T10:35:20;97355.06;;;16.88;100.00
39243;BME280;29823;47.404;8.566;2022-10-03T10:38:26;97352.75;;;16.75;100.00
39243;BME280;29823;47.404;8.566;2022-10-03T10:41:34;97352.63;;;16.65;100.00
39243;BME280;29823;47.404;8.566;2022-10-03T10:47:53;97351.81;;;18.77;90.88
39243;BME280;29823;47.404;8.566;2022-10-03T10:54:21;97327.75;;;21.55;64.93
39243;BME280;29823;47.404;8.566;2022-10-03T10:57:05;97330.84;;;22.54;59.25
39243;BME280;29823;47.404;8.566;2022-10-03T11:00:06;97325.38;;;22.26;59.44
39243;BME280;29823;47.404;8.566;2022-10-03T11:09:41;97324.41;;;25.90;51.93
39243;BME280;29823;47.404;8.566;2022-10-03T11:15:53;97328.28;;;23.80;51.46
39243;BME280;29823;47.404;8.566;2022-10-03T11:25:23;97323.09;;;19.27;74.83
39243;BME280;29823;47.404;8.566;2022-10-03T11:37:42;97325.31;;;18.42;81.39
39243;BME280;29823;47.404;8.566;2022-10-03T11:40:30;97325.88;;;19.72;75.71
39243;BME280;29823;47.404;8.566;2022-10-03T11:43:30;97328.38;;;19.02;75.60
39243;BME280;29823;47.404;8.566;2022-10-03T11:46:19;97325.50;;;18.67;81.95
39243;BME280;29823;47.404;8.566;2022-10-03T11:48:52;97325.75;;;18.66;90.14
39243;BME280;29823;47.404;8.566;2022-10-03T11:51:35;97312.88;;;18.41;93.56
39243;BME280;29823;47.404;8.566;2022-10-03T11:54:11;97329.66;;;18.12;83.38
39243;BME280;29823;47.404;8.566;2022-10-03T11:57:05;97324.97;;;17.71;86.86
39243;BME280;29823;47.404;8.566;2022-10-03T11:59:45;97318.72;;;17.97;81.32
39243;BME280;29823;47.404;8.566;2022-10-03T12:02:49;97319.34;;;19.63;72.78
39243;BME280;29823;47.404;8.566;2022-10-03T12:05:22;97312.44;;;18.23;77.26
39243;BME280;29823;47.404;8.566;2022-10-03T12:08:05;97314.41;;;18.74;74.61
39243;BME280;29823;47.404;8.566;2022-10-03T12:11:02;97319.41;;;18.50;79.23
39243;BME280;29823;47.404;8.566;2022-10-03T12:13:42;97323.63;;;19.29;69.50
39243;BME280;29823;47.404;8.566;2022-10-03T12:16:19;97322.72;;;19.09;76.35
39243;BME280;29823;47.404;8.566;2022-10-03T12:18:57;97328.88;;;18.94;74.71
39243;BME280;29823;47.404;8.566;2022-10-03T12:21:41;97330.31;;;18.60;82.76
39243;BME280;29823;47.404;8.566;2022-10-03T12:24:26;97327.44;;;19.38;77.17
39243;BME280;29823;47.404;8.566;2022-10-03T12:27:03;97323.75;;;19.99;73.70
39243;BME280;29823;47.404;8.566;2022-10-03T12:29:37;97323.78;;;20.09;63.95
39243;BME280;29823;47.404;8.566;2022-10-03T12:32:17;97309.41;;;21.27;60.13
39243;BME280;29823;47.404;8.566;2022-10-03T12:34:52;97308.50;;;22.57;57.29
39243;BME280;29823;47.404;8.566;2022-10-03T12:37:38;97321.25;;;21.51;59.70
39243;BME280;29823;47.404;8.566;2022-10-03T12:40:16;97319.09;;;21.48;59.84
39243;BME280;29823;47.404;8.566;2022-10-03T12:42:50;97312.63;;;20.01;65.72
39243;BME280;29823;47.404;8.566;2022-10-03T12:45:27;97304.22;;;19.01;71.28
39243;BME280;29823;47.404;8.566;2022-10-03T12:48:04;97313.00;;;18.66;75.37
39243;BME280;29823;47.404;8.566;2022-10-03T12:50:44;97315.28;;;18.06;79.69
39243;BME280;29823;47.404;8.566;2022-10-03T12:53:28;97309.66;;;17.81;79.52
39243;BME280;29823;47.404;8.566;2022-10-03T12:56:03;97308.34;;;17.84;79.23
39243;BME280;29823;47.404;8.566;2022-10-03T12:58:41;97293.25;;;17.61;83.31
39243;BME280;29823;47.404;8.566;2022-10-03T13:01:23;97296.59;;;17.73;78.76
39243;BME280;29823;47.404;8.566;2022-10-03T13:03:56;97286.09;;;17.50;85.31
39243;BME280;29823;47.404;8.566;2022-10-03T13:06:36;97291.81;;;17.27;91.42
39243;BME280;29823;47.404;8.566;2022-10-03T13:09:38;97284.94;;;17.41;84.77
39243;BME280;29823;47.404;8.566;2022-10-03T13:12:17;97276.81;;;17.41;82.82
39243;BME280;29823;47.404;8.566;2022-10-03T13:18:22;97275.03;;;17.52;87.36
39243;BME280;29823;47.404;8.566;2022-10-03T13:21:02;97284.09;;;17.67;81.11
39243;BME280;29823;47.404;8.566;2022-10-03T13:23:56;97280.66;;;17.45;83.03
39243;BME280;29823;47.404;8.566;2022-10-03T13:26:36;97281.91;;;17.16;87.29
39243;BME280;29823;47.404;8.566;2022-10-03T13:29:20;97279.06;;;17.28;90.28
39243;BME280;29823;47.404;8.566;2022-10-03T13:32:02;97277.75;;;17.30;94.44
39243;BME280;29823;47.404;8.566;2022-10-03T13:34:42;97280.41;;;17.25;95.44
39243;BME280;29823;47.404;8.566;2022-10-03T13:37:15;97276.00;;;16.93;90.94
39243;BME280;29823;47.404;8.566;2022-10-03T13:39:50;97286.16;;;17.07;89.99
39243;BME280;29823;47.404;8.566;2022-10-03T13:42:24;97286.22;;;16.91;94.02
39243;BME280;29823;47.404;8.566;2022-10-03T13:45:01;97273.53;;;16.91;98.73
39243;BME280;29823;47.404;8.566;2022-10-03T13:47:43;97267.63;;;16.94;92.34
39243;BME280;29823;47.404;8.566;2022-10-03T13:50:17;97262.06;;;16.79;91.22
39243;BME280;29823;47.404;8.566;2022-10-03T13:52:51;97257.75;;;16.83;95.56
39243;BME280;29823;47.404;8.566;2022-10-03T13:55:27;97260.38;;;16.73;92.30
39243;BME280;29823;47.404;8.566;2022-10-03T13:58:21;97265.81;;;16.57;90.77
39243;BME280;29823;47.404;8.566;2022-10-03T14:01:08;97255.94;;;16.67;93.99
39243;BME280;29823;47.404;8.566;2022-10-03T14:03:45;97254.03;;;16.84;89.03
39243;BME280;29823;47.404;8.566;2022-10-03T14:06:26;97253.19;;;16.84;90.92
39243;BME280;29823;47.404;8.566;2022-10-03T14:09:24;97256.94;;;17.04;91.51
39243;BME280;29823;47.404;8.566;2022-10-03T14:11:59;97251.69;;;16.93;91.36
39243;BME280;29823;47.404;8.566;2022-10-03T14:17:45;97248.38;;;16.64;90.64
39243;BME280;29823;47.404;8.566;2022-10-03T14:20:23;97239.53;;;16.31;96.96
39243;BME280;29823;47.404;8.566;2022-10-03T14:23:10;97249.47;;;16.47;100.00
39243;BME280;29823;47.404;8.566;2022-10-03T14:25:44;97245.91;;;16.41;99.56
39243;BME280;29823;47.404;8.566;2022-10-03T14:28:18;97240.63;;;16.51;90.04
39243;BME280;29823;47.404;8.566;2022-10-03T14:30:58;97234.81;;;16.59;92.58
39243;BME280;29823;47.404;8.566;2022-10-03T14:33:39;97242.94;;;16.43;93.07
39243;BME280;29823;47.404;8.566;2022-10-03T14:36:23;97237.38;;;16.49;99.79
39243;BME280;29823;47.404;8.566;2022-10-03T14:39:19;97233.84;;;16.49;97.84
39243;BME280;29823;47.404;8.566;2022-10-03T14:42:17;97234.66;;;16.49;95.41
39243;BME280;29823;47.404;8.566;2022-10-03T14:44:52;97241.69;;;16.50;95.90
39243;BME280;29823;47.404;8.566;2022-10-03T14:47:22;97237.06;;;16.46;89.21
39243;BME280;29823;47.404;8.566;2022-10-03T14:49:53;97234.69;;;16.33;91.75
39243;BME280;29823;47.404;8.566;2022-10-03T14:52:29;97230.97;;;16.17;96.99
39243;BME280;29823;47.404;8.566;2022-10-03T14:55:10;97238.66;;;16.25;91.99
39243;BME280;29823;47.404;8.566;2022-10-03T14:57:44;97239.56;;;16.14;95.99
39243;BME280;29823;47.404;8.566;2022-10-03T15:00:37;97231.59;;;16.24;97.73
39243;BME280;29823;47.404;8.566;2022-10-03T15:03:23;97225.81;;;16.16;93.73
39243;BME280;29823;47.404;8.566;2022-10-03T15:06:18;97226.78;;;16.26;100.00
39243;BME280;29823;47.404;8.566;2022-10-03T15:08:49;97228.91;;;16.24;94.44
39243;BME280;29823;47.404;8.566;2022-10-03T15:11:22;97226.88;;;16.15;97.69
39243;BME280;29823;47.404;8.566;2022-10-03T15:13:55;97224.44;;;16.13;91.02
39243;BME280;29823;47.404;8.566;2022-10-03T15:16:24;97222.47;;;16.25;91.29
39243;BME280;29823;47.404;8.566;2022-10-03T15:18:55;97217.66;;;16.11;92.93
39243;BME280;29823;47.404;8.566;2022-10-03T15:21:25;97230.03;;;16.07;91.72
39243;BME280;29823;47.404;8.566;2022-10-03T15:23:56;97230.81;;;16.07;98.54
39243;BME280;29823;47.404;8.566;2022-10-03T15:26:27;97216.97;;;15.82;100.00
39243;BME280;29823;47.404;8.566;2022-10-03T15:29:01;97219.41;;;15.84;99.77
39243;BME280;29823;47.404;8.566;2022-10-03T15:31:33;97223.59;;;15.75;100.00
39243;BME280;29823;47.404;8.566;2022-10-03T15:34:04;97221.53;;;15.98;96.77
39243;BME280;29823;47.404;8.566;2022-10-03T15:36:36;97214.16;;;15.94;95.10
39243;BME280;29823;47.404;8.566;2022-10-03T15:39:13;97200.44;;;15.79;100.00
39243;BME280;29823;47.404;8.566;2022-10-03T15:41:50;97219.09;;;15.80;100.00
39243;BME280;29823;47.404;8.566;2022-10-03T15:44:22;97221.38;;;15.72;100.00
39243;BME280;29823;47.404;8.566;2022-10-03T15:46:56;97222.59;;;15.64;99.16
39243;BME280;29823;47.404;8.566;2022-10-03T15:49:29;97216.81;;;15.72;100.00
39243;BME280;29823;47.404;8.566;2022-10-03T15:52:07;97214.03;;;15.67;100.00
39243;BME280;29823;47.404;8.566;2022-10-03T15:54:37;97224.19;;;15.60;100.00
39243;BME280;29823;47.404;8.566;2022-10-03T15:57:16;97199.75;;;15.34;100.00
39243;BME280;29823;47.404;8.566;2022-10-03T15:59:49;97215.84;;;15.45;100.00
39243;BME280;29823;47.404;8.566;2022-10-03T16:02:22;97215.66;;;15.52;100.00
39243;BME280;29823;47.404;8.566;2022-10-03T16:04:53;97214.13;;;15.39;100.00
39243;BME280;29823;47.404;8.566;2022-10-03T16:07:29;97212.84;;;15.30;100.00
39243;BME280;29823;47.404;8.566;2022-10-03T16:10:10;97187.56;;;14.87;100.00
39243;BME280;29823;47.404;8.566;2022-10-03T16:13:00;97207.22;;;14.87;100.00
39243;BME280;29823;47.404;8.566;2022-10-03T16:15:41;97201.03;;;14.87;100.00
39243;BME280;29823;47.404;8.566;2022-10-03T16:18:50;97207.09;;;14.66;100.00
39243;BME280;29823;47.404;8.566;2022-10-03T16:21:40;97208.09;;;14.48;100.00
39243;BME280;29823;47.404;8.566;2022-10-03T16:24:21;97205.50;;;14.53;100.00
39243;BME280;29823;47.404;8.566;2022-10-03T16:27:00;97208.66;;;14.50;100.00
39243;BME280;29823;47.404;8.566;2022-10-03T16:29:35;97212.53;;;14.43;100.00
39243;BME280;29823;47.404;8.566;2022-10-03T16:32:07;97212.53;;;14.43;100.00
39243;BME280;29823;47.404;8.566;2022-10-03T16:34:40;97198.97;;;14.38;100.00
39243;BME280;29823;47.404;8.566;2022-10-03T16:37:16;97209.38;;;14.46;100.00
39243;BME280;29823;47.404;8.566;2022-10-03T16:39:51;97213.59;;;14.42;100.00